createdAt,value
2022-08-07T00:01:44.755Z,69.17
2022-08-07T00:04:45.305Z,68.89
2022-08-07T00:07:47.993Z,68.88
2022-08-07T00:10:58.447Z,68.93
2022-08-07T00:14:01.096Z,68.76
2022-08-07T00:17:04.740Z,68.54
2022-08-07T00:20:10.147Z,68.36
2022-08-07T00:23:21.248Z,68.17
2022-08-07T00:26:49.102Z,68.32
2022-08-07T00:29:49.603Z,68.21
2022-08-07T00:32:52.580Z,68.12
2022-08-07T00:35:56.635Z,67.64
2022-08-07T00:38:59.185Z,67.54
2022-08-07T00:42:05.246Z,67.60
2022-08-07T00:45:16.306Z,67.69
2022-08-07T00:48:19.462Z,67.58
2022-08-07T00:51:56.546Z,67.60
2022-08-07T00:54:53.556Z,67.92
2022-08-07T00:57:56.807Z,68.02
2022-08-07T01:00:59.887Z,68.09
2022-08-07T01:04:07.304Z,68.07
2022-08-07T01:07:10.807Z,67.48
2022-08-07T01:10:13.466Z,67.39
2022-08-07T01:13:17.277Z,67.39
2022-08-07T01:16:30.372Z,67.77
2022-08-07T01:19:38.341Z,67.83
2022-08-07T01:22:56.580Z,67.63
2022-08-07T01:26:11.897Z,67.68
2022-08-07T01:29:16.208Z,67.38
2022-08-07T01:32:19.491Z,66.87
2022-08-07T01:35:26.593Z,66.80
2022-08-07T01:38:49.490Z,67.57
2022-08-07T01:42:07.736Z,67.21
2022-08-07T01:45:18.038Z,67.35
2022-08-07T01:48:29.921Z,66.95
2022-08-07T01:52:01.663Z,67.01
2022-08-07T01:55:00.747Z,66.81
2022-08-07T01:58:28.953Z,67.23
2022-08-07T02:02:02.836Z,67.36
2022-08-07T02:05:09.143Z,66.89
2022-08-07T02:08:23.733Z,66.51
2022-08-07T02:11:30.721Z,66.63
2022-08-07T02:14:54.881Z,66.79
2022-08-07T02:18:01.274Z,67.00
2022-08-07T02:21:08.139Z,66.94
2022-08-07T02:24:19.508Z,66.32
2022-08-07T02:27:25.202Z,66.97
2022-08-07T02:30:30.702Z,66.36
2022-08-07T02:33:57.481Z,66.66
2022-08-07T02:37:08.135Z,66.80
2022-08-07T02:40:30.442Z,66.68
2022-08-07T02:43:39.385Z,66.87
2022-08-07T02:46:46.513Z,67.30
2022-08-07T02:49:57.498Z,67.42
2022-08-07T02:53:10.902Z,66.92
2022-08-07T02:56:21.703Z,68.02
2022-08-07T02:59:27.463Z,68.88
2022-08-07T03:02:32.559Z,69.58
2022-08-07T03:05:38.052Z,69.77
2022-08-07T03:08:41.931Z,69.23
2022-08-07T03:11:52.582Z,69.17
2022-08-07T03:15:07.807Z,68.88
2022-08-07T03:18:20.023Z,68.78
2022-08-07T03:21:24.458Z,68.42
2022-08-07T03:24:28.388Z,68.99
2022-08-07T03:27:58.810Z,68.83
2022-08-07T03:31:17.439Z,68.70
2022-08-07T03:34:22.534Z,69.29
2022-08-07T03:37:28.029Z,68.85
2022-08-07T03:40:37.142Z,69.59
2022-08-07T03:43:52.162Z,69.23
2022-08-07T03:47:12.987Z,69.11
2022-08-07T03:50:23.326Z,68.72
2022-08-07T03:53:50.137Z,68.93
2022-08-07T03:57:03.768Z,68.82
2022-08-07T04:00:12.063Z,68.92
2022-08-07T04:03:18.375Z,68.86
2022-08-07T04:06:37.761Z,68.79
2022-08-07T04:09:45.336Z,68.69
2022-08-07T04:12:55.263Z,68.45
2022-08-07T04:15:58.644Z,67.28
2022-08-07T04:19:14.643Z,67.12
2022-08-07T04:22:19.497Z,67.52
2022-08-07T04:25:29.262Z,67.37
2022-08-07T04:28:33.544Z,67.48
2022-08-07T04:32:02.935Z,67.12
2022-08-07T04:35:06.331Z,67.71
2022-08-07T04:38:13.152Z,67.35
2022-08-07T04:41:19.016Z,67.08
2022-08-07T04:44:22.843Z,66.53
2022-08-07T04:47:57.302Z,65.84
2022-08-07T04:51:11.190Z,65.08
2022-08-07T04:54:31.604Z,64.82
2022-08-07T04:58:12.233Z,63.66
2022-08-07T05:01:18.251Z,63.13
2022-08-07T05:04:37.644Z,62.46
2022-08-07T05:07:56.847Z,61.95
2022-08-07T05:11:19.439Z,62.11
2022-08-07T05:14:56.259Z,61.61
2022-08-07T05:18:20.905Z,61.23
2022-08-07T05:21:59.781Z,61.34
2022-08-07T05:24:51.956Z,60.74
2022-08-07T05:28:16.719Z,60.08
2022-08-07T05:31:22.193Z,59.59
2022-08-07T05:34:27.691Z,59.47
2022-08-07T05:37:32.500Z,58.34
2022-08-07T05:40:51.541Z,58.95
2022-08-07T05:44:12.359Z,58.05
2022-08-07T05:47:19.990Z,58.13
2022-08-07T05:50:43.034Z,57.67
2022-08-07T05:54:13.134Z,57.65
2022-08-07T05:57:09.885Z,56.78
2022-08-07T06:00:15.983Z,56.46
2022-08-07T06:03:22.999Z,56.33
2022-08-07T06:06:29.580Z,55.54
2022-08-07T06:10:04.586Z,54.79
2022-08-07T06:13:03.633Z,55.22
2022-08-07T06:16:08.693Z,54.58
2022-08-07T06:19:17.904Z,54.82
2022-08-07T06:22:23.938Z,54.09
2022-08-07T06:25:34.811Z,54.11
2022-08-07T06:28:54.384Z,54.29
2022-08-07T06:31:58.303Z,53.67
2022-08-07T06:35:10.558Z,54.44
2022-08-07T06:38:21.777Z,54.21
2022-08-07T06:42:00.552Z,54.28
2022-08-07T06:44:56.849Z,52.97
2022-08-07T06:48:00.406Z,53.65
2022-08-07T06:51:09.631Z,53.94
2022-08-07T06:55:33.045Z,52.38
2022-08-07T06:57:48.349Z,51.90
2022-08-07T07:00:58.230Z,51.73
2022-08-07T07:04:23.692Z,51.09
2022-08-07T07:07:59.879Z,50.85
2022-08-07T07:10:47.611Z,50.10
2022-08-07T07:14:02.431Z,50.67
2022-08-07T07:17:16.192Z,49.85
2022-08-07T07:20:25.532Z,50.05
2022-08-07T07:24:10.800Z,49.71
2022-08-07T07:26:58.895Z,49.59
2022-08-07T07:30:09.884Z,49.67
2022-08-07T07:33:17.457Z,49.51
2022-08-07T07:36:22.949Z,49.32
2022-08-07T07:39:52.536Z,49.04
2022-08-07T07:43:06.271Z,48.40
2022-08-07T07:46:36.989Z,48.90
2022-08-07T07:50:34.082Z,47.98
2022-08-07T07:53:20.143Z,48.19
2022-08-07T07:56:29.666Z,48.02
2022-08-07T07:59:52.686Z,47.51
2022-08-07T08:03:16.351Z,47.78
2022-08-07T08:06:20.110Z,47.12
2022-08-07T08:09:29.514Z,47.19
2022-08-07T08:12:52.657Z,47.42
2022-08-07T08:16:01.890Z,47.22
2022-08-07T08:19:18.141Z,45.59
2022-08-07T08:22:55.892Z,45.33
2022-08-07T08:26:27.112Z,44.50
2022-08-07T08:29:36.361Z,44.02
2022-08-07T08:33:01.549Z,44.26
2022-08-07T08:36:07.508Z,44.42
2022-08-07T08:39:11.259Z,43.15
2022-08-07T08:42:25.853Z,43.32
2022-08-07T08:45:41.849Z,42.87
2022-08-07T08:49:19.094Z,42.31
2022-08-07T08:52:54.311Z,41.46
2022-08-07T08:56:02.919Z,41.33
2022-08-07T08:59:25.919Z,40.69
2022-08-07T09:02:54.578Z,40.32
2022-08-07T09:06:11.572Z,40.04
2022-08-07T09:09:38.644Z,39.43
2022-08-07T09:13:10.913Z,39.94
2022-08-07T09:16:38.989Z,39.73
2022-08-07T09:19:57.633Z,39.59
2022-08-07T09:24:31.220Z,38.90
2022-08-07T09:26:47.930Z,38.15
2022-08-07T09:30:08.438Z,38.35
2022-08-07T09:33:57.083Z,38.29
2022-08-07T09:37:12.440Z,38.23
2022-08-07T09:40:38.538Z,37.69
2022-08-07T09:44:06.915Z,37.07
2022-08-07T09:48:00.085Z,36.63
2022-08-07T09:51:14.582Z,36.18
2022-08-07T09:54:40.939Z,35.99
2022-08-07T09:58:10.335Z,35.81
2022-08-07T10:01:52.374Z,35.97
2022-08-07T10:05:21.943Z,35.87
2022-08-07T10:09:10.893Z,35.15
2022-08-07T10:12:53.164Z,35.87
2022-08-07T10:16:16.371Z,34.99
2022-08-07T10:19:26.898Z,34.92
2022-08-07T10:22:50.889Z,35.23
2022-08-07T10:25:53.855Z,35.50
2022-08-07T10:29:15.260Z,36.52
2022-08-07T10:32:52.939Z,36.40
2022-08-07T10:36:36.379Z,36.73
2022-08-07T10:40:03.271Z,35.73
2022-08-07T10:43:34.487Z,37.32
2022-08-07T10:46:55.804Z,36.35
2022-08-07T10:50:08.684Z,36.67
2022-08-07T10:53:41.951Z,36.70
2022-08-07T10:57:13.733Z,36.47
2022-08-07T11:00:39.751Z,36.94
2022-08-07T11:04:23.304Z,36.51
2022-08-07T11:08:12.549Z,35.07
2022-08-07T11:11:29.657Z,35.27
2022-08-07T11:15:00.181Z,35.54
2022-08-07T11:18:16.052Z,34.76
2022-08-07T11:21:58.701Z,34.23
2022-08-07T11:25:13.083Z,33.54
2022-08-07T11:28:29.133Z,34.62
2022-08-07T11:31:41.738Z,34.43
2022-08-07T11:34:53.637Z,35.00
2022-08-07T11:38:28.338Z,34.45
2022-08-07T11:42:01.647Z,34.07
2022-08-07T11:45:05.504Z,34.17
2022-08-07T11:48:37.588Z,34.25
2022-08-07T11:51:46.806Z,34.70
2022-08-07T11:55:18.637Z,34.39
2022-08-07T11:58:43.735Z,34.25
2022-08-07T12:02:01.380Z,34.66
2022-08-07T12:05:41.713Z,34.23
2022-08-07T12:09:16.176Z,33.90
2022-08-07T12:12:28.347Z,32.58
2022-08-07T12:15:46.563Z,33.29
2022-08-07T12:19:21.165Z,33.44
2022-08-07T12:22:56.323Z,33.27
2022-08-07T12:26:28.640Z,32.77
2022-08-07T12:29:40.400Z,33.02
2022-08-07T12:32:49.865Z,33.49
2022-08-07T12:35:57.944Z,32.97
2022-08-07T12:39:09.535Z,32.56
2022-08-07T12:42:31.904Z,32.87
2022-08-07T12:45:55.265Z,33.04
2022-08-07T12:49:25.793Z,33.45
2022-08-07T12:52:52.318Z,33.80
2022-08-07T12:56:10.237Z,34.01
2022-08-07T12:59:21.546Z,33.95
2022-08-07T13:02:50.877Z,33.39
2022-08-07T13:06:21.657Z,33.64
2022-08-07T13:10:19.601Z,33.62
2022-08-07T13:14:01.677Z,32.59
2022-08-07T13:17:21.245Z,32.71
2022-08-07T13:20:41.364Z,32.86
2022-08-07T13:24:00.689Z,32.20
2022-08-07T13:27:15.096Z,32.45
2022-08-07T13:30:40.045Z,32.04
2022-08-07T13:34:32.872Z,31.65
2022-08-07T13:37:34.329Z,31.30
2022-08-07T13:40:54.428Z,31.77
2022-08-07T13:44:01.862Z,31.20
2022-08-07T13:47:09.335Z,31.66
2022-08-07T13:50:33.290Z,31.77
2022-08-07T13:53:59.542Z,31.44
2022-08-07T13:57:10.888Z,31.23
2022-08-07T14:00:26.761Z,31.17
2022-08-07T14:04:07.603Z,30.99
2022-08-07T14:06:55.128Z,31.30
2022-08-07T14:10:23.117Z,31.42
2022-08-07T14:13:33.838Z,31.44
2022-08-07T14:16:40.314Z,31.08
2022-08-07T14:20:40.496Z,30.50
2022-08-07T14:24:00.911Z,30.62
2022-08-07T14:28:09.506Z,30.36
2022-08-07T14:33:57.059Z,30.63
2022-08-07T14:37:03.614Z,30.25
2022-08-07T14:43:57.212Z,30.33
2022-08-07T14:47:14.247Z,29.95
2022-08-07T14:50:20.428Z,29.55
2022-08-07T14:53:49.987Z,29.54
2022-08-07T14:56:51.103Z,29.74
2022-08-07T15:00:05.353Z,29.42
2022-08-07T15:06:37.940Z,28.69
2022-08-07T15:09:59.067Z,28.52
2022-08-07T15:13:12.289Z,28.79
2022-08-07T15:16:33.497Z,27.90
2022-08-07T15:20:31.216Z,26.34
2022-08-07T15:26:43.940Z,22.90
2022-08-07T15:30:08.408Z,20.97
2022-08-07T15:33:20.131Z,19.30
2022-08-07T15:37:04.421Z,19.09
2022-08-07T15:39:59.029Z,19.42
2022-08-07T15:43:33.243Z,20.13
2022-08-07T15:50:11.635Z,18.69
2022-08-07T15:53:41.909Z,18.69
2022-08-07T15:56:59.718Z,17.77
2022-08-07T16:00:06.191Z,19.73
2022-08-07T16:03:46.255Z,22.71
2022-08-07T16:06:51.122Z,25.40
2022-08-07T16:10:03.739Z,24.22
2022-08-07T16:13:59.300Z,21.99
2022-08-07T16:17:03.220Z,20.27
2022-08-07T16:20:55.251Z,19.95
2022-08-07T16:24:52.616Z,19.84
2022-08-07T16:30:05.551Z,21.34
2022-08-07T16:31:57.794Z,23.93
2022-08-07T16:35:59.431Z,26.15
2022-08-07T16:39:14.815Z,26.43
2022-08-07T16:42:52.568Z,28.19
2022-08-07T16:47:06.451Z,29.11
2022-08-07T16:50:35.187Z,30.30
2022-08-07T16:54:19.512Z,31.55
2022-08-07T16:58:02.597Z,32.15
2022-08-07T17:01:18.154Z,32.48
2022-08-07T17:04:58.766Z,32.76
2022-08-07T17:08:02.152Z,33.09
2022-08-07T17:11:22.344Z,33.52
2022-08-07T17:14:37.879Z,33.64
2022-08-07T17:17:47.982Z,34.36
2022-08-07T17:20:54.833Z,34.63
2022-08-07T17:24:23.720Z,34.88
2022-08-07T17:27:54.113Z,35.39
2022-08-07T17:31:22.635Z,35.65
2022-08-07T17:34:57.245Z,35.47
2022-08-07T17:38:35.297Z,35.92
2022-08-07T17:42:03.808Z,36.37
2022-08-07T17:45:19.849Z,36.78
2022-08-07T17:48:31.942Z,36.98
2022-08-07T17:51:59.870Z,37.15
2022-08-07T17:55:12.882Z,37.39
2022-08-07T17:58:31.108Z,37.69
2022-08-07T18:01:44.167Z,37.70
2022-08-07T18:05:21.448Z,37.94
2022-08-07T18:08:31.196Z,38.01
2022-08-07T18:12:18.081Z,38.06
2022-08-07T18:15:39.342Z,38.14
2022-08-07T18:21:04.510Z,38.48
2022-08-07T18:22:27.101Z,38.62
2022-08-07T18:25:40.372Z,38.70
2022-08-07T18:30:05.978Z,38.46
2022-08-07T18:33:10.883Z,38.83
2022-08-07T18:36:36.353Z,38.57
2022-08-07T18:40:05.080Z,38.40
2022-08-07T18:43:10.942Z,38.51
2022-08-07T18:46:25.255Z,38.93
2022-08-07T18:50:35.236Z,38.75
2022-08-07T18:53:13.846Z,39.01
2022-08-07T18:56:30.595Z,39.45
2022-08-07T18:59:59.416Z,39.62
2022-08-07T19:03:15.800Z,36.95
2022-08-07T19:06:33.705Z,36.34
2022-08-07T19:09:59.319Z,36.08
2022-08-07T19:13:38.072Z,36.52
2022-08-07T19:17:07.073Z,36.25
2022-08-07T19:20:29.535Z,36.19
2022-08-07T19:23:58.488Z,36.54
2022-08-07T19:28:29.376Z,36.72
2022-08-07T19:31:04.037Z,37.03
2022-08-07T19:34:02.639Z,37.11
2022-08-07T19:37:17.313Z,37.65
2022-08-07T19:40:31.553Z,37.74
2022-08-07T19:43:49.136Z,38.06
2022-08-07T19:47:05.209Z,37.89
2022-08-07T19:50:45.164Z,38.12
2022-08-07T19:54:31.045Z,38.23
2022-08-07T19:58:03.553Z,38.38
2022-08-07T20:00:28.836Z,38.31
2022-08-07T20:03:36.300Z,37.98
2022-08-07T20:06:43.052Z,38.17
2022-08-07T20:10:37.333Z,38.24
2022-08-07T20:13:26.998Z,38.58
2022-08-07T20:16:36.207Z,38.95
2022-08-07T20:19:49.394Z,39.08
2022-08-07T20:23:10.839Z,39.05
2022-08-07T20:26:44.858Z,39.44
2022-08-07T20:29:58.427Z,39.55
2022-08-07T20:33:36.324Z,40.33
2022-08-07T20:36:33.667Z,40.49
2022-08-07T20:40:02.615Z,40.15
2022-08-07T20:43:09.706Z,40.64
2022-08-07T20:46:29.014Z,40.98
2022-08-07T20:49:58.115Z,40.78
2022-08-07T20:53:00.567Z,40.97
2022-08-07T20:56:07.237Z,40.95
2022-08-07T21:00:05.286Z,41.05
2022-08-07T21:02:58.168Z,41.54
2022-08-07T21:06:21.645Z,41.42
2022-08-07T21:09:53.068Z,41.07
2022-08-07T21:13:06.220Z,41.17
2022-08-07T21:16:11.324Z,41.41
2022-08-07T21:19:16.193Z,41.43
2022-08-07T21:22:28.246Z,41.57
2022-08-07T21:26:20.418Z,41.83
2022-08-07T21:29:37.420Z,41.78
2022-08-07T21:33:08.022Z,41.41
2022-08-07T21:36:31.114Z,41.79
2022-08-07T21:40:01.431Z,41.96
2022-08-07T21:43:16.700Z,42.47
2022-08-07T21:46:44.430Z,42.30
2022-08-07T21:50:02.006Z,42.13
2022-08-07T21:53:12.871Z,42.08
2022-08-07T21:56:37.694Z,42.29
2022-08-07T22:00:04.673Z,42.47
2022-08-07T22:03:17.251Z,42.42
2022-08-07T22:06:44.959Z,42.71
2022-08-07T22:09:54.434Z,43.21
2022-08-07T22:13:01.269Z,43.03
2022-08-07T22:16:45.609Z,43.41
2022-08-07T22:20:22.807Z,43.98
2022-08-07T22:23:40.415Z,43.81
2022-08-07T22:26:51.582Z,44.11
2022-08-07T22:30:12.787Z,44.32
2022-08-07T22:33:18.033Z,43.95
2022-08-07T22:37:12.437Z,43.86
2022-08-07T22:40:23.253Z,44.26
2022-08-07T22:43:36.109Z,44.38
2022-08-07T22:47:17.005Z,44.15
2022-08-07T22:50:38.212Z,44.32
2022-08-07T22:54:09.173Z,44.27
2022-08-07T22:57:41.056Z,44.94
2022-08-07T23:01:18.393Z,44.90
2022-08-07T23:06:08.857Z,44.85
2022-08-07T23:08:47.932Z,45.09
2022-08-07T23:12:32.624Z,45.36
2022-08-07T23:16:07.317Z,45.70
2022-08-07T23:20:19.073Z,45.63
2022-08-07T23:24:06.588Z,45.03
2022-08-07T23:27:33.932Z,45.57
2022-08-07T23:31:13.715Z,46.44
2022-08-07T23:34:42.322Z,47.12
2022-08-07T23:38:01.062Z,46.87
2022-08-07T23:41:47.411Z,47.78
2022-08-07T23:45:33.250Z,50.04
2022-08-07T23:48:50.107Z,51.73
2022-08-07T23:52:59.616Z,52.99
2022-08-07T23:55:53.448Z,54.04
